sensor_id;sensor_type;location;lat;lon;timestamp;temperature;humidity
23783;DHT22;12071;50.850;4.446;2023-10-13T00:00:30;19.40;1.00
23783;DHT22;12071;50.850;4.446;2023-10-13T00:02:59;19.50;1.00
23783;DHT22;12071;50.850;4.446;2023-10-13T00:05:33;19.40;1.00
23783;DHT22;12071;50.850;4.446;2023-10-13T00:08:00;19.60;1.00
23783;DHT22;12071;50.850;4.446;2023-10-13T00:10:28;19.50;1.00
23783;DHT22;12071;50.850;4.446;2023-10-13T00:12:54;19.60;1.00
23783;DHT22;12071;50.850;4.446;2023-10-13T00:15:20;19.60;1.00
23783;DHT22;12071;50.850;4.446;2023-10-13T00:17:53;19.70;1.00
23783;DHT22;12071;50.850;4.446;2023-10-13T00:20:21;19.40;1.00
23783;DHT22;12071;50.850;4.446;2023-10-13T00:23:03;19.40;1.00
23783;DHT22;12071;50.850;4.446;2023-10-13T00:25:29;19.70;1.00
23783;DHT22;12071;50.850;4.446;2023-10-13T00:28:05;19.70;1.00
23783;DHT22;12071;50.850;4.446;2023-10-13T00:30:34;19.90;1.00
23783;DHT22;12071;50.850;4.446;2023-10-13T00:32:59;19.90;1.00
23783;DHT22;12071;50.850;4.446;2023-10-13T00:35:27;19.80;1.00
23783;DHT22;12071;50.850;4.446;2023-10-13T00:38:05;19.70;1.00
23783;DHT22;12071;50.850;4.446;2023-10-13T00:40:43;19.50;1.00
23783;DHT22;12071;50.850;4.446;2023-10-13T00:43:18;19.50;1.00
23783;DHT22;12071;50.850;4.446;2023-10-13T00:45:49;19.70;1.00
23783;DHT22;12071;50.850;4.446;2023-10-13T00:48:28;19.60;1.00
23783;DHT22;12071;50.850;4.446;2023-10-13T00:50:59;19.80;1.00
23783;DHT22;12071;50.850;4.446;2023-10-13T00:53:31;19.70;1.00
23783;DHT22;12071;50.850;4.446;2023-10-13T00:56:00;19.50;1.00
23783;DHT22;12071;50.850;4.446;2023-10-13T00:58:35;19.40;1.00
23783;DHT22;12071;50.850;4.446;2023-10-13T01:01:04;19.30;1.00
23783;DHT22;12071;50.850;4.446;2023-10-13T01:03:54;19.30;1.00
23783;DHT22;12071;50.850;4.446;2023-10-13T01:06:22;19.40;1.00
23783;DHT22;12071;50.850;4.446;2023-10-13T01:09:01;19.50;1.00
23783;DHT22;12071;50.850;4.446;2023-10-13T01:11:38;19.60;1.00
23783;DHT22;12071;50.850;4.446;2023-10-13T01:14:03;19.50;1.00
23783;DHT22;12071;50.850;4.446;2023-10-13T01:16:29;19.40;1.00
23783;DHT22;12071;50.850;4.446;2023-10-13T01:18:55;19.30;1.00
23783;DHT22;12071;50.850;4.446;2023-10-13T01:21:26;19.10;1.00
23783;DHT22;12071;50.850;4.446;2023-10-13T01:23:55;19.20;1.00
23783;DHT22;12071;50.850;4.446;2023-10-13T01:26:21;19.30;1.00
23783;DHT22;12071;50.850;4.446;2023-10-13T01:28:50;19.40;1.00
23783;DHT22;12071;50.850;4.446;2023-10-13T01:31:16;19.50;1.00
23783;DHT22;12071;50.850;4.446;2023-10-13T01:33:51;19.70;1.00
23783;DHT22;12071;50.850;4.446;2023-10-13T01:36:21;19.60;1.00
23783;DHT22;12071;50.850;4.446;2023-10-13T01:38:47;19.60;1.00
23783;DHT22;12071;50.850;4.446;2023-10-13T01:41:13;19.60;1.00
23783;DHT22;12071;50.850;4.446;2023-10-13T01:43:40;19.70;1.00
23783;DHT22;12071;50.850;4.446;2023-10-13T01:46:06;19.70;1.00
23783;DHT22;12071;50.850;4.446;2023-10-13T01:48:34;19.60;1.00
23783;DHT22;12071;50.850;4.446;2023-10-13T01:51:05;19.70;1.00
23783;DHT22;12071;50.850;4.446;2023-10-13T01:53:36;19.80;1.00
23783;DHT22;12071;50.850;4.446;2023-10-13T01:56:03;19.90;1.00
23783;DHT22;12071;50.850;4.446;2023-10-13T01:58:31;19.90;1.00
23783;DHT22;12071;50.850;4.446;2023-10-13T02:00:57;19.80;1.00
23783;DHT22;12071;50.850;4.446;2023-10-13T02:03:25;19.80;1.00
23783;DHT22;12071;50.850;4.446;2023-10-13T02:05:53;19.80;1.00
23783;DHT22;12071;50.850;4.446;2023-10-13T02:08:23;19.60;1.00
23783;DHT22;12071;50.850;4.446;2023-10-13T02:10:56;19.50;1.00
23783;DHT22;12071;50.850;4.446;2023-10-13T02:13:24;19.60;1.00
23783;DHT22;12071;50.850;4.446;2023-10-13T02:15:54;19.60;1.00
23783;DHT22;12071;50.850;4.446;2023-10-13T02:18:22;19.60;1.00
23783;DHT22;12071;50.850;4.446;2023-10-13T02:21:03;19.70;1.00
23783;DHT22;12071;50.850;4.446;2023-10-13T02:23:38;19.50;1.00
23783;DHT22;12071;50.850;4.446;2023-10-13T02:26:09;19.30;1.00
23783;DHT22;12071;50.850;4.446;2023-10-13T02:28:57;19.40;1.00
23783;DHT22;12071;50.850;4.446;2023-10-13T02:31:23;19.30;1.00
23783;DHT22;12071;50.850;4.446;2023-10-13T02:33:50;19.40;1.00
23783;DHT22;12071;50.850;4.446;2023-10-13T02:36:16;19.30;1.00
23783;DHT22;12071;50.850;4.446;2023-10-13T02:38:49;19.50;1.00
23783;DHT22;12071;50.850;4.446;2023-10-13T02:41:20;19.50;1.00
23783;DHT22;12071;50.850;4.446;2023-10-13T02:43:52;19.30;1.00
23783;DHT22;12071;50.850;4.446;2023-10-13T02:46:21;19.20;1.00
23783;DHT22;12071;50.850;4.446;2023-10-13T02:48:48;19.10;1.00
23783;DHT22;12071;50.850;4.446;2023-10-13T02:51:19;19.30;1.00
23783;DHT22;12071;50.850;4.446;2023-10-13T02:53:50;19.40;1.00
23783;DHT22;12071;50.850;4.446;2023-10-13T02:56:18;19.30;1.00
23783;DHT22;12071;50.850;4.446;2023-10-13T02:58:52;19.30;1.00
23783;DHT22;12071;50.850;4.446;2023-10-13T03:01:34;19.40;1.00
23783;DHT22;12071;50.850;4.446;2023-10-13T03:04:04;19.50;1.00
23783;DHT22;12071;50.850;4.446;2023-10-13T03:06:35;19.30;1.00
23783;DHT22;12071;50.850;4.446;2023-10-13T03:09:06;19.50;1.00
23783;DHT22;12071;50.850;4.446;2023-10-13T03:11:45;19.60;1.00
23783;DHT22;12071;50.850;4.446;2023-10-13T03:14:22;19.60;1.00
23783;DHT22;12071;50.850;4.446;2023-10-13T03:17:00;19.50;1.00
23783;DHT22;12071;50.850;4.446;2023-10-13T03:19:34;19.80;1.00
23783;DHT22;12071;50.850;4.446;2023-10-13T03:22:03;19.40;1.00
23783;DHT22;12071;50.850;4.446;2023-10-13T03:24:39;19.30;1.00
23783;DHT22;12071;50.850;4.446;2023-10-13T03:27:19;19.30;1.00
23783;DHT22;12071;50.850;4.446;2023-10-13T03:30:05;19.10;1.00
23783;DHT22;12071;50.850;4.446;2023-10-13T03:32:36;19.00;1.00
23783;DHT22;12071;50.850;4.446;2023-10-13T03:35:09;19.10;1.00
23783;DHT22;12071;50.850;4.446;2023-10-13T03:38:04;19.00;1.00
23783;DHT22;12071;50.850;4.446;2023-10-13T03:40:53;18.90;1.00
23783;DHT22;12071;50.850;4.446;2023-10-13T03:43:32;18.90;1.00
23783;DHT22;12071;50.850;4.446;2023-10-13T03:45:58;19.00;1.00
23783;DHT22;12071;50.850;4.446;2023-10-13T03:48:33;19.00;1.00
23783;DHT22;12071;50.850;4.446;2023-10-13T03:51:06;19.10;1.00
23783;DHT22;12071;50.850;4.446;2023-10-13T03:53:41;19.00;1.00
23783;DHT22;12071;50.850;4.446;2023-10-13T03:56:21;19.00;1.00
23783;DHT22;12071;50.850;4.446;2023-10-13T03:58:58;19.10;1.00
23783;DHT22;12071;50.850;4.446;2023-10-13T04:01:33;19.00;1.00
23783;DHT22;12071;50.850;4.446;2023-10-13T04:04:09;19.00;1.00
23783;DHT22;12071;50.850;4.446;2023-10-13T04:06:40;18.90;1.00
23783;DHT22;12071;50.850;4.446;2023-10-13T04:09:17;18.80;1.00
23783;DHT22;12071;50.850;4.446;2023-10-13T04:11:57;18.80;1.00
23783;DHT22;12071;50.850;4.446;2023-10-13T04:14:29;18.80;1.00
23783;DHT22;12071;50.850;4.446;2023-10-13T04:17:14;18.90;1.00
23783;DHT22;12071;50.850;4.446;2023-10-13T04:19:43;19.00;1.00
23783;DHT22;12071;50.850;4.446;2023-10-13T04:22:27;18.90;1.00
23783;DHT22;12071;50.850;4.446;2023-10-13T04:28:00;18.90;1.00
23783;DHT22;12071;50.850;4.446;2023-10-13T04:30:50;18.90;1.00
23783;DHT22;12071;50.850;4.446;2023-10-13T04:33:26;18.80;1.00
23783;DHT22;12071;50.850;4.446;2023-10-13T04:36:05;18.80;1.00
23783;DHT22;12071;50.850;4.446;2023-10-13T04:38:55;18.90;1.00
23783;DHT22;12071;50.850;4.446;2023-10-13T04:41:31;18.90;1.00
23783;DHT22;12071;50.850;4.446;2023-10-13T04:44:07;18.90;1.00
23783;DHT22;12071;50.850;4.446;2023-10-13T04:46:52;19.10;1.00
23783;DHT22;12071;50.850;4.446;2023-10-13T04:49:25;19.30;1.00
23783;DHT22;12071;50.850;4.446;2023-10-13T04:52:02;19.40;1.00
23783;DHT22;12071;50.850;4.446;2023-10-13T04:54:34;19.40;1.00
23783;DHT22;12071;50.850;4.446;2023-10-13T04:57:23;19.40;1.00
23783;DHT22;12071;50.850;4.446;2023-10-13T05:00:14;19.30;1.00
23783;DHT22;12071;50.850;4.446;2023-10-13T05:02:44;19.30;1.00
23783;DHT22;12071;50.850;4.446;2023-10-13T05:05:26;19.30;1.00
23783;DHT22;12071;50.850;4.446;2023-10-13T05:08:11;19.40;1.00
23783;DHT22;12071;50.850;4.446;2023-10-13T05:10:56;19.60;1.00
23783;DHT22;12071;50.850;4.446;2023-10-13T05:14:00;19.50;1.00
23783;DHT22;12071;50.850;4.446;2023-10-13T05:16:45;19.30;1.00
23783;DHT22;12071;50.850;4.446;2023-10-13T05:19:29;19.30;1.00
23783;DHT22;12071;50.850;4.446;2023-10-13T05:22:13;19.40;1.00
23783;DHT22;12071;50.850;4.446;2023-10-13T05:24:58;19.50;1.00
23783;DHT22;12071;50.850;4.446;2023-10-13T05:27:43;19.40;1.00
23783;DHT22;12071;50.850;4.446;2023-10-13T05:30:27;19.40;1.00
23783;DHT22;12071;50.850;4.446;2023-10-13T05:33:11;19.40;1.00
23783;DHT22;12071;50.850;4.446;2023-10-13T05:35:56;19.50;1.00
23783;DHT22;12071;50.850;4.446;2023-10-13T05:38:40;19.40;1.00
23783;DHT22;12071;50.850;4.446;2023-10-13T05:41:24;19.30;1.00
23783;DHT22;12071;50.850;4.446;2023-10-13T05:44:08;19.40;1.00
23783;DHT22;12071;50.850;4.446;2023-10-13T05:46:52;19.30;1.00
23783;DHT22;12071;50.850;4.446;2023-10-13T05:49:47;19.10;1.00
23783;DHT22;12071;50.850;4.446;2023-10-13T05:52:19;19.20;1.00
23783;DHT22;12071;50.850;4.446;2023-10-13T05:54:48;19.30;1.00
23783;DHT22;12071;50.850;4.446;2023-10-13T05:57:32;19.30;1.00
23783;DHT22;12071;50.850;4.446;2023-10-13T06:00:16;19.40;1.00
23783;DHT22;12071;50.850;4.446;2023-10-13T06:03:01;19.50;1.00
23783;DHT22;12071;50.850;4.446;2023-10-13T06:05:45;19.50;1.00
23783;DHT22;12071;50.850;4.446;2023-10-13T06:08:30;19.40;1.00
23783;DHT22;12071;50.850;4.446;2023-10-13T06:11:14;19.50;1.00
23783;DHT22;12071;50.850;4.446;2023-10-13T06:13:58;19.50;1.00
23783;DHT22;12071;50.850;4.446;2023-10-13T06:16:42;19.40;1.00
23783;DHT22;12071;50.850;4.446;2023-10-13T06:19:28;19.20;1.00
23783;DHT22;12071;50.850;4.446;2023-10-13T06:22:12;19.30;1.00
23783;DHT22;12071;50.850;4.446;2023-10-13T06:24:57;19.20;1.00
23783;DHT22;12071;50.850;4.446;2023-10-13T06:27:41;19.20;1.00
23783;DHT22;12071;50.850;4.446;2023-10-13T06:30:30;19.30;1.00
23783;DHT22;12071;50.850;4.446;2023-10-13T06:32:55;19.30;1.00
23783;DHT22;12071;50.850;4.446;2023-10-13T06:35:21;19.50;1.00
23783;DHT22;12071;50.850;4.446;2023-10-13T06:37:50;19.40;1.00
23783;DHT22;12071;50.850;4.446;2023-10-13T06:40:17;19.40;1.00
23783;DHT22;12071;50.850;4.446;2023-10-13T06:42:52;19.50;1.00
23783;DHT22;12071;50.850;4.446;2023-10-13T06:45:20;19.50;1.00
23783;DHT22;12071;50.850;4.446;2023-10-13T06:47:47;19.40;1.00
23783;DHT22;12071;50.850;4.446;2023-10-13T06:50:15;19.30;1.00
23783;DHT22;12071;50.850;4.446;2023-10-13T06:52:45;19.30;1.00
23783;DHT22;12071;50.850;4.446;2023-10-13T06:55:12;19.30;1.00
23783;DHT22;12071;50.850;4.446;2023-10-13T06:57:46;19.40;1.00
23783;DHT22;12071;50.850;4.446;2023-10-13T07:00:13;19.40;1.00
23783;DHT22;12071;50.850;4.446;2023-10-13T07:03:05;19.30;1.00
23783;DHT22;12071;50.850;4.446;2023-10-13T07:05:43;19.50;1.00
23783;DHT22;12071;50.850;4.446;2023-10-13T07:08:10;19.60;1.00
23783;DHT22;12071;50.850;4.446;2023-10-13T07:11:00;19.70;1.00
23783;DHT22;12071;50.850;4.446;2023-10-13T07:13:39;19.60;1.00
23783;DHT22;12071;50.850;4.446;2023-10-13T07:16:09;19.40;1.00
23783;DHT22;12071;50.850;4.446;2023-10-13T07:18:38;19.50;1.00
23783;DHT22;12071;50.850;4.446;2023-10-13T07:21:10;19.60;1.00
23783;DHT22;12071;50.850;4.446;2023-10-13T07:23:37;19.60;1.00
23783;DHT22;12071;50.850;4.446;2023-10-13T07:26:03;19.40;1.00
23783;DHT22;12071;50.850;4.446;2023-10-13T07:28:30;19.60;1.00
23783;DHT22;12071;50.850;4.446;2023-10-13T07:31:04;19.70;1.00
23783;DHT22;12071;50.850;4.446;2023-10-13T07:33:30;19.60;1.00
23783;DHT22;12071;50.850;4.446;2023-10-13T07:36:08;19.70;1.00
23783;DHT22;12071;50.850;4.446;2023-10-13T07:38:50;19.80;1.00
23783;DHT22;12071;50.850;4.446;2023-10-13T07:41:25;19.80;1.00
23783;DHT22;12071;50.850;4.446;2023-10-13T07:43:56;19.90;1.00
23783;DHT22;12071;50.850;4.446;2023-10-13T07:46:25;19.80;1.00
23783;DHT22;12071;50.850;4.446;2023-10-13T07:48:57;19.90;1.00
23783;DHT22;12071;50.850;4.446;2023-10-13T07:51:35;20.10;1.00
23783;DHT22;12071;50.850;4.446;2023-10-13T07:54:10;19.90;1.00
23783;DHT22;12071;50.850;4.446;2023-10-13T07:56:38;20.20;99.90
23783;DHT22;12071;50.850;4.446;2023-10-13T07:59:05;20.10;99.90
23783;DHT22;12071;50.850;4.446;2023-10-13T08:01:34;20.20;99.90
23783;DHT22;12071;50.850;4.446;2023-10-13T08:04:00;20.50;99.90
23783;DHT22;12071;50.850;4.446;2023-10-13T08:06:32;20.60;99.90
23783;DHT22;12071;50.850;4.446;2023-10-13T08:08:59;20.40;99.90
23783;DHT22;12071;50.850;4.446;2023-10-13T08:11:37;20.50;99.90
23783;DHT22;12071;50.850;4.446;2023-10-13T08:14:05;20.70;99.90
23783;DHT22;12071;50.850;4.446;2023-10-13T08:16:54;20.60;99.90
23783;DHT22;12071;50.850;4.446;2023-10-13T08:19:26;20.60;99.90
23783;DHT22;12071;50.850;4.446;2023-10-13T08:21:54;20.60;99.90
23783;DHT22;12071;50.850;4.446;2023-10-13T08:24:27;20.60;99.90
23783;DHT22;12071;50.850;4.446;2023-10-13T08:27:06;20.70;99.90
23783;DHT22;12071;50.850;4.446;2023-10-13T08:29:46;20.90;99.90
23783;DHT22;12071;50.850;4.446;2023-10-13T08:32:22;20.80;99.90
23783;DHT22;12071;50.850;4.446;2023-10-13T08:34:48;20.90;99.90
23783;DHT22;12071;50.850;4.446;2023-10-13T08:37:13;20.90;99.90
23783;DHT22;12071;50.850;4.446;2023-10-13T08:39:55;20.80;99.90
23783;DHT22;12071;50.850;4.446;2023-10-13T08:42:37;21.00;99.90
23783;DHT22;12071;50.850;4.446;2023-10-13T08:45:14;21.10;99.90
23783;DHT22;12071;50.850;4.446;2023-10-13T08:48:07;21.10;99.90
23783;DHT22;12071;50.850;4.446;2023-10-13T08:50:39;21.10;99.90
23783;DHT22;12071;50.850;4.446;2023-10-13T08:53:22;21.20;99.90
23783;DHT22;12071;50.850;4.446;2023-10-13T08:56:10;21.30;99.70
23783;DHT22;12071;50.850;4.446;2023-10-13T08:58:42;21.50;59.20
23783;DHT22;12071;50.850;4.446;2023-10-13T09:01:21;21.40;71.50
23783;DHT22;12071;50.850;4.446;2023-10-13T09:04:03;21.50;47.70
23783;DHT22;12071;50.850;4.446;2023-10-13T09:06:55;21.50;1.00
23783;DHT22;12071;50.850;4.446;2023-10-13T09:09:46;21.50;1.00
23783;DHT22;12071;50.850;4.446;2023-10-13T09:12:36;21.50;15.60
23783;DHT22;12071;50.850;4.446;2023-10-13T09:15:06;21.50;1.00
23783;DHT22;12071;50.850;4.446;2023-10-13T09:17:52;21.50;1.00
23783;DHT22;12071;50.850;4.446;2023-10-13T09:20:32;21.30;1.00
23783;DHT22;12071;50.850;4.446;2023-10-13T09:23:08;21.20;1.00
23783;DHT22;12071;50.850;4.446;2023-10-13T09:25:36;21.20;1.00
23783;DHT22;12071;50.850;4.446;2023-10-13T09:28:04;21.50;1.00
23783;DHT22;12071;50.850;4.446;2023-10-13T09:30:54;21.60;1.00
23783;DHT22;12071;50.850;4.446;2023-10-13T09:33:26;21.90;99.90
23783;DHT22;12071;50.850;4.446;2023-10-13T09:36:03;21.80;99.90
23783;DHT22;12071;50.850;4.446;2023-10-13T09:38:37;21.70;99.90
23783;DHT22;12071;50.850;4.446;2023-10-13T09:41:06;21.60;99.90
23783;DHT22;12071;50.850;4.446;2023-10-13T09:43:46;21.90;99.90
23783;DHT22;12071;50.850;4.446;2023-10-13T09:46:20;21.70;99.90
23783;DHT22;12071;50.850;4.446;2023-10-13T09:48:57;21.70;99.90
23783;DHT22;12071;50.850;4.446;2023-10-13T09:51:30;21.70;99.90
23783;DHT22;12071;50.850;4.446;2023-10-13T09:54:08;21.80;1.00
23783;DHT22;12071;50.850;4.446;2023-10-13T09:56:55;22.00;99.90
23783;DHT22;12071;50.850;4.446;2023-10-13T09:59:33;22.20;99.90
23783;DHT22;12071;50.850;4.446;2023-10-13T10:02:06;22.40;90.00
23783;DHT22;12071;50.850;4.446;2023-10-13T10:04:53;22.40;1.00
23783;DHT22;12071;50.850;4.446;2023-10-13T10:07:26;22.40;1.00
23783;DHT22;12071;50.850;4.446;2023-10-13T10:10:01;22.60;1.00
23783;DHT22;12071;50.850;4.446;2023-10-13T10:18:03;22.50;99.90
23783;DHT22;12071;50.850;4.446;2023-10-13T10:20:34;22.30;1.00
23783;DHT22;12071;50.850;4.446;2023-10-13T10:23:10;22.50;99.90
23783;DHT22;12071;50.850;4.446;2023-10-13T10:25:50;22.70;1.00
23783;DHT22;12071;50.850;4.446;2023-10-13T10:28:35;22.80;1.00
23783;DHT22;12071;50.850;4.446;2023-10-13T10:31:05;22.90;1.00
23783;DHT22;12071;50.850;4.446;2023-10-13T10:33:35;23.10;6.50
23783;DHT22;12071;50.850;4.446;2023-10-13T10:36:01;23.10;99.90
23783;DHT22;12071;50.850;4.446;2023-10-13T10:38:27;23.30;1.00
23783;DHT22;12071;50.850;4.446;2023-10-13T10:41:02;23.30;99.90
23783;DHT22;12071;50.850;4.446;2023-10-13T10:46:15;23.10;1.00
23783;DHT22;12071;50.850;4.446;2023-10-13T10:48:44;23.10;69.40
23783;DHT22;12071;50.850;4.446;2023-10-13T10:51:14;23.30;99.90
23783;DHT22;12071;50.850;4.446;2023-10-13T10:53:50;23.30;99.90
23783;DHT22;12071;50.850;4.446;2023-10-13T10:56:24;23.60;99.90
23783;DHT22;12071;50.850;4.446;2023-10-13T10:59:01;23.80;99.90
23783;DHT22;12071;50.850;4.446;2023-10-13T11:01:28;23.90;99.90
23783;DHT22;12071;50.850;4.446;2023-10-13T11:04:14;23.80;1.00
23783;DHT22;12071;50.850;4.446;2023-10-13T11:06:56;23.70;1.00
23783;DHT22;12071;50.850;4.446;2023-10-13T11:09:33;23.80;1.00
23783;DHT22;12071;50.850;4.446;2023-10-13T11:12:14;23.80;1.00
23783;DHT22;12071;50.850;4.446;2023-10-13T11:14:44;23.80;1.00
23783;DHT22;12071;50.850;4.446;2023-10-13T11:17:23;24.00;99.90
23783;DHT22;12071;50.850;4.446;2023-10-13T11:20:20;24.10;1.00
23783;DHT22;12071;50.850;4.446;2023-10-13T11:23:00;24.00;99.90
23783;DHT22;12071;50.850;4.446;2023-10-13T11:25:31;23.80;99.90
23783;DHT22;12071;50.850;4.446;2023-10-13T11:30:41;24.10;99.90
23783;DHT22;12071;50.850;4.446;2023-10-13T11:33:11;24.40;15.20
23783;DHT22;12071;50.850;4.446;2023-10-13T11:35:43;24.20;99.90
23783;DHT22;12071;50.850;4.446;2023-10-13T11:38:19;24.00;99.90
23783;DHT22;12071;50.850;4.446;2023-10-13T11:41:04;23.80;1.00
23783;DHT22;12071;50.850;4.446;2023-10-13T11:43:33;24.20;1.00
23783;DHT22;12071;50.850;4.446;2023-10-13T11:46:12;24.10;1.00
23783;DHT22;12071;50.850;4.446;2023-10-13T11:48:42;24.10;99.90
23783;DHT22;12071;50.850;4.446;2023-10-13T11:51:14;23.90;99.90
23783;DHT22;12071;50.850;4.446;2023-10-13T11:53:44;23.90;1.00
23783;DHT22;12071;50.850;4.446;2023-10-13T11:56:10;24.00;99.90
23783;DHT22;12071;50.850;4.446;2023-10-13T11:58:37;23.80;99.90
23783;DHT22;12071;50.850;4.446;2023-10-13T12:01:03;23.80;1.00
23783;DHT22;12071;50.850;4.446;2023-10-13T12:03:38;23.90;1.00
23783;DHT22;12071;50.850;4.446;2023-10-13T12:06:23;24.00;1.00
23783;DHT22;12071;50.850;4.446;2023-10-13T12:08:59;24.10;99.90
23783;DHT22;12071;50.850;4.446;2023-10-13T12:11:40;23.80;99.90
23783;DHT22;12071;50.850;4.446;2023-10-13T12:14:10;23.80;99.90
23783;DHT22;12071;50.850;4.446;2023-10-13T12:16:48;23.80;99.90
23783;DHT22;12071;50.850;4.446;2023-10-13T12:19:23;23.70;1.00
23783;DHT22;12071;50.850;4.446;2023-10-13T12:21:53;23.80;99.90
23783;DHT22;12071;50.850;4.446;2023-10-13T12:24:20;23.80;99.90
23783;DHT22;12071;50.850;4.446;2023-10-13T12:27:05;23.60;99.90
23783;DHT22;12071;50.850;4.446;2023-10-13T12:29:57;23.60;1.00
23783;DHT22;12071;50.850;4.446;2023-10-13T12:32:36;23.60;99.90
23783;DHT22;12071;50.850;4.446;2023-10-13T12:35:05;23.50;1.00
23783;DHT22;12071;50.850;4.446;2023-10-13T12:37:33;23.40;99.90
23783;DHT22;12071;50.850;4.446;2023-10-13T12:40:21;23.30;1.00
23783;DHT22;12071;50.850;4.446;2023-10-13T12:43:06;23.30;1.00
23783;DHT22;12071;50.850;4.446;2023-10-13T12:45:51;23.30;99.90
23783;DHT22;12071;50.850;4.446;2023-10-13T12:48:36;23.50;99.90
23783;DHT22;12071;50.850;4.446;2023-10-13T12:51:22;23.50;1.00
23783;DHT22;12071;50.850;4.446;2023-10-13T12:53:54;23.50;1.00
23783;DHT22;12071;50.850;4.446;2023-10-13T12:56:21;23.50;1.00
23783;DHT22;12071;50.850;4.446;2023-10-13T12:58:54;23.50;99.90
23783;DHT22;12071;50.850;4.446;2023-10-13T13:01:24;23.40;68.00
23783;DHT22;12071;50.850;4.446;2023-10-13T13:03:52;23.30;99.90
23783;DHT22;12071;50.850;4.446;2023-10-13T13:06:25;23.60;56.90
23783;DHT22;12071;50.850;4.446;2023-10-13T13:08:52;23.50;1.00
23783;DHT22;12071;50.850;4.446;2023-10-13T13:11:18;23.50;1.00
23783;DHT22;12071;50.850;4.446;2023-10-13T13:13:44;23.60;1.00
23783;DHT22;12071;50.850;4.446;2023-10-13T13:16:15;23.60;1.00
23783;DHT22;12071;50.850;4.446;2023-10-13T13:18:40;23.50;1.00
23783;DHT22;12071;50.850;4.446;2023-10-13T13:21:08;23.60;1.00
23783;DHT22;12071;50.850;4.446;2023-10-13T13:23:51;23.60;1.00
23783;DHT22;12071;50.850;4.446;2023-10-13T13:26:17;23.60;1.00
23783;DHT22;12071;50.850;4.446;2023-10-13T13:28:46;23.50;9.60
23783;DHT22;12071;50.850;4.446;2023-10-13T13:31:22;23.50;99.90
23783;DHT22;12071;50.850;4.446;2023-10-13T13:33:52;23.30;98.20
23783;DHT22;12071;50.850;4.446;2023-10-13T13:36:18;23.30;99.90
23783;DHT22;12071;50.850;4.446;2023-10-13T13:38:45;23.20;99.90
23783;DHT22;12071;50.850;4.446;2023-10-13T13:41:25;23.20;99.90
23783;DHT22;12071;50.850;4.446;2023-10-13T13:43:52;23.40;99.90
23783;DHT22;12071;50.850;4.446;2023-10-13T13:46:23;23.70;1.00
23783;DHT22;12071;50.850;4.446;2023-10-13T13:48:59;23.80;1.00
23783;DHT22;12071;50.850;4.446;2023-10-13T13:51:29;23.80;1.00
23783;DHT22;12071;50.850;4.446;2023-10-13T13:53:58;24.00;99.90
23783;DHT22;12071;50.850;4.446;2023-10-13T13:56:25;24.10;99.90
23783;DHT22;12071;50.850;4.446;2023-10-13T13:58:52;24.30;99.90
23783;DHT22;12071;50.850;4.446;2023-10-13T14:01:20;24.10;99.90
23783;DHT22;12071;50.850;4.446;2023-10-13T14:03:51;24.00;99.90
23783;DHT22;12071;50.850;4.446;2023-10-13T14:06:18;24.00;99.90
23783;DHT22;12071;50.850;4.446;2023-10-13T14:08:46;23.90;99.90
23783;DHT22;12071;50.850;4.446;2023-10-13T14:11:19;23.80;99.90
23783;DHT22;12071;50.850;4.446;2023-10-13T14:14:16;23.70;99.90
23783;DHT22;12071;50.850;4.446;2023-10-13T14:16:51;23.80;99.90
23783;DHT22;12071;50.850;4.446;2023-10-13T14:19:17;23.80;99.90
23783;DHT22;12071;50.850;4.446;2023-10-13T14:21:59;23.80;99.90
23783;DHT22;12071;50.850;4.446;2023-10-13T14:24:26;23.80;99.90
23783;DHT22;12071;50.850;4.446;2023-10-13T14:27:00;23.80;99.90
23783;DHT22;12071;50.850;4.446;2023-10-13T14:29:38;23.70;99.90
23783;DHT22;12071;50.850;4.446;2023-10-13T14:32:10;23.60;99.90
23783;DHT22;12071;50.850;4.446;2023-10-13T14:34:42;23.50;99.90
23783;DHT22;12071;50.850;4.446;2023-10-13T14:37:09;23.60;99.90
23783;DHT22;12071;50.850;4.446;2023-10-13T14:39:55;23.60;99.90
23783;DHT22;12071;50.850;4.446;2023-10-13T14:42:27;23.60;99.90
23783;DHT22;12071;50.850;4.446;2023-10-13T14:44:53;23.60;99.90
23783;DHT22;12071;50.850;4.446;2023-10-13T14:47:25;23.40;99.90
23783;DHT22;12071;50.850;4.446;2023-10-13T14:49:54;23.30;1.00
23783;DHT22;12071;50.850;4.446;2023-10-13T14:52:21;23.30;1.00
23783;DHT22;12071;50.850;4.446;2023-10-13T14:54:47;23.20;1.00
23783;DHT22;12071;50.850;4.446;2023-10-13T14:57:16;23.20;1.00
23783;DHT22;12071;50.850;4.446;2023-10-13T14:59:41;23.30;1.00
23783;DHT22;12071;50.850;4.446;2023-10-13T15:02:07;23.00;99.90
23783;DHT22;12071;50.850;4.446;2023-10-13T15:04:34;23.10;99.90
23783;DHT22;12071;50.850;4.446;2023-10-13T15:07:01;23.00;99.90
23783;DHT22;12071;50.850;4.446;2023-10-13T15:09:30;23.00;99.90
23783;DHT22;12071;50.850;4.446;2023-10-13T15:11:56;23.00;99.90
23783;DHT22;12071;50.850;4.446;2023-10-13T15:14:22;23.00;99.90
23783;DHT22;12071;50.850;4.446;2023-10-13T15:16:51;23.00;99.90
23783;DHT22;12071;50.850;4.446;2023-10-13T15:19:18;22.80;1.00
23783;DHT22;12071;50.850;4.446;2023-10-13T15:21:43;22.80;99.90
23783;DHT22;12071;50.850;4.446;2023-10-13T15:24:14;22.80;99.90
23783;DHT22;12071;50.850;4.446;2023-10-13T15:26:48;22.90;61.70
23783;DHT22;12071;50.850;4.446;2023-10-13T15:29:18;22.80;1.00
23783;DHT22;12071;50.850;4.446;2023-10-13T15:31:51;22.80;40.80
23783;DHT22;12071;50.850;4.446;2023-10-13T15:34:27;22.80;99.90
23783;DHT22;12071;50.850;4.446;2023-10-13T15:36:53;22.70;1.00
23783;DHT22;12071;50.850;4.446;2023-10-13T15:39:21;22.40;99.90
23783;DHT22;12071;50.850;4.446;2023-10-13T15:41:54;22.30;1.00
23783;DHT22;12071;50.850;4.446;2023-10-13T15:44:20;22.20;99.90
23783;DHT22;12071;50.850;4.446;2023-10-13T15:46:53;22.40;99.90
23783;DHT22;12071;50.850;4.446;2023-10-13T15:49:19;22.30;99.90
23783;DHT22;12071;50.850;4.446;2023-10-13T15:51:44;22.40;99.90
23783;DHT22;12071;50.850;4.446;2023-10-13T15:54:11;22.50;52.40
23783;DHT22;12071;50.850;4.446;2023-10-13T15:56:44;22.40;1.00
23783;DHT22;12071;50.850;4.446;2023-10-13T15:59:10;22.40;1.00
23783;DHT22;12071;50.850;4.446;2023-10-13T16:01:37;22.30;99.90
23783;DHT22;12071;50.850;4.446;2023-10-13T16:04:08;22.20;1.00
23783;DHT22;12071;50.850;4.446;2023-10-13T16:06:43;22.30;1.00
23783;DHT22;12071;50.850;4.446;2023-10-13T16:09:13;22.30;1.00
23783;DHT22;12071;50.850;4.446;2023-10-13T16:11:48;22.60;99.90
23783;DHT22;12071;50.850;4.446;2023-10-13T16:14:14;22.30;99.90
23783;DHT22;12071;50.850;4.446;2023-10-13T16:16:46;22.20;99.90
23783;DHT22;12071;50.850;4.446;2023-10-13T16:19:17;22.20;99.90
23783;DHT22;12071;50.850;4.446;2023-10-13T16:21:47;22.20;99.90
23783;DHT22;12071;50.850;4.446;2023-10-13T16:24:13;22.20;99.90
23783;DHT22;12071;50.850;4.446;2023-10-13T16:26:47;22.10;65.70
23783;DHT22;12071;50.850;4.446;2023-10-13T16:29:18;22.00;99.90
23783;DHT22;12071;50.850;4.446;2023-10-13T16:31:45;21.70;1.00
23783;DHT22;12071;50.850;4.446;2023-10-13T16:34:14;21.80;99.90
23783;DHT22;12071;50.850;4.446;2023-10-13T16:36:44;21.60;99.90